Thurles, Ireland
Current Conditions -  °F | °C
As of 9:30 PM on Sunday 21 Dec 2014 (Local Time) from EIWF Reporting Station
Broken Clouds Broken Clouds  
Wind Chill: 52°   Ceiling: 300
Heat Index: 52°   Visibility: 6mi
Dew Point: 52°   Wind: 15mph
Humidity: 100%   Direction: 240°WSW
Pressure: 30.09"   Gusts: NA
Location:  52.68°N, 7.48°W
Report Text: EIWF 212030Z 24013KT 200V300 9000 BKN003 11/11 Q1019
Loading
Personal Weather Stations






























Interactive Weather Map New forecast layout! Learn more

10-Day Weather Forecast

Advertisements
Track Severe Weather on mobile